Time;durP1;ratioP1;P1;durP2;ratioP2;P2;SDS_P1;SDS_P2;PMS_P1;PMS_P2;Temp;Humidity;BMP_temperature;BMP_pressure;BME280_temperature;BME280_humidity;BME280_pressure;Samples;Min_cycle;Max_cycle;Signal;HPM_P1;HPM_P2
2022/11/21 00:04:57;;;;;;;31.73;10.03;;;0.60;99.90;;;-1.82;100.00;99528.47;10536857;28;20061;-81
2022/11/21 00:10:00;;;;;;;23.80;9.50;;;0.60;99.90;;;-1.81;100.00;99524.94;10486444;28;20060;-81
2022/11/21 00:15:05;;;;;;;28.47;9.50;;;0.60;99.90;;;-1.85;100.00;99520.06;10537022;28;20057;-82
2022/11/21 00:20:08;;;;;;;26.77;10.37;;;0.50;99.90;;;-1.94;100.00;99503.28;10498081;28;20459;-81
2022/11/21 00:25:11;;;;;;;26.33;9.40;;;0.50;99.90;;;-1.98;100.00;99497.47;10485814;28;20144;-81
2022/11/21 00:30:16;;;;;;;29.50;9.47;;;0.40;99.90;;;-2.04;100.00;99482.28;10517956;28;20068;-82
2022/11/21 00:35:19;;;;;;;28.53;8.63;;;0.30;99.90;;;-2.02;100.00;99489.97;10530866;28;20061;-82
2022/11/21 00:40:22;;;;;;;23.53;8.30;;;0.30;99.90;;;-2.03;100.00;99488.31;10483715;28;20069;-82
2022/11/21 00:45:25;;;;;;;17.77;8.17;;;0.30;99.90;;;-2.07;100.00;99461.63;10468119;28;20207;-81
2022/11/21 00:50:28;;;;;;;25.27;8.80;;;0.30;99.90;;;-2.07;100.00;99466.00;10512129;28;20057;-81
2022/11/21 00:55:31;;;;;;;29.83;10.33;;;0.30;99.90;;;-2.07;100.00;99464.25;10519751;28;20480;-82
2022/11/21 01:00:34;;;;;;;56.00;15.07;;;0.30;99.90;;;-2.03;100.00;99457.06;10486997;28;20053;-82
2022/11/21 01:05:37;;;;;;;46.63;15.70;;;0.30;99.90;;;-2.08;100.00;99465.19;10479516;28;20054;-82
2022/11/21 01:10:39;;;;;;;33.40;11.97;;;0.30;99.90;;;-2.08;100.00;99451.34;10487578;28;20119;-82
2022/11/21 01:15:42;;;;;;;37.83;13.57;;;0.30;99.90;;;-2.06;100.00;99447.69;10494874;28;20057;-82
2022/11/21 01:20:45;;;;;;;33.23;11.23;;;0.30;99.90;;;-2.04;100.00;99452.75;10510341;28;20061;-83
2022/11/21 01:25:48;;;;;;;35.40;13.90;;;0.30;99.90;;;-2.01;100.00;99461.22;10517959;28;20489;-83
2022/11/21 01:30:51;;;;;;;28.13;9.53;;;0.40;99.90;;;-1.95;100.00;99452.16;10498934;28;20095;-83
2022/11/21 01:35:54;;;;;;;28.87;10.63;;;0.50;99.90;;;-1.85;100.00;99457.56;10500013;28;20061;-82
2022/11/21 01:40:57;;;;;;;41.30;13.53;;;0.50;99.90;;;-1.79;100.00;99470.97;10495924;28;20052;-83
2022/11/21 01:46:06;;;;;;;36.10;12.07;;;0.50;99.90;;;-1.75;100.00;99467.19;10481604;28;20061;-82
2022/11/21 01:51:30;;;;;;;49.87;13.07;;;0.60;99.90;;;-1.71;100.00;99467.81;10468601;28;20061;-83
2022/11/21 01:56:45;;;;;;;41.33;13.00;;;0.70;99.90;;;-1.62;100.00;99464.56;10469560;28;20061;-83
2022/11/21 02:01:52;;;;;;;64.07;13.40;;;0.80;99.90;;;-1.56;100.00;99461.53;10471718;28;20061;-82
2022/11/21 02:06:55;;;;;;;52.30;14.37;;;0.90;99.90;;;-1.52;100.00;99447.34;10476318;28;20116;-82
2022/11/21 02:12:07;;;;;;;40.73;11.87;;;0.90;99.90;;;-1.48;100.00;99442.75;10475358;28;20571;-81
2022/11/21 02:17:11;;;;;;;60.73;13.43;;;1.00;99.90;;;-1.51;100.00;99446.41;10477753;28;20110;-82
2022/11/21 02:22:31;;;;;;;49.73;11.23;;;1.00;99.90;;;-1.57;100.00;99439.00;10481782;28;20064;-81
2022/11/21 02:27:35;;;;;;;32.53;10.93;;;0.90;99.90;;;-1.65;100.00;99436.13;10512601;28;20068;-82
2022/11/21 02:32:41;;;;;;;34.00;12.47;;;0.80;99.90;;;-1.79;100.00;99428.47;10466303;28;20088;-82
2022/11/21 02:37:49;;;;;;;31.80;12.80;;;0.70;99.90;;;-1.86;100.00;99429.81;10509056;28;20064;-81
2022/11/21 02:43:09;;;;;;;23.50;9.63;;;0.60;99.90;;;-1.94;100.00;99420.78;10486345;28;20061;-81
2022/11/21 02:48:13;;;;;;;25.10;10.27;;;0.50;99.90;;;-1.97;100.00;99423.63;10527086;28;20119;-81
2022/11/21 02:53:18;;;;;;;27.60;9.97;;;0.40;99.90;;;-2.03;100.00;99423.22;10507763;28;20064;-81
2022/11/21 02:58:21;;;;;;;24.53;9.13;;;0.40;99.90;;;-2.11;100.00;99430.72;10481594;28;20060;-82
2022/11/21 03:03:24;;;;;;;22.40;6.93;;;0.30;99.90;;;-2.13;100.00;99423.00;10503811;28;20057;-82
2022/11/21 03:08:27;;;;;;;11.43;4.73;;;0.30;99.90;;;-2.16;100.00;99424.06;10519146;28;20088;-81
2022/11/21 03:13:29;;;;;;;17.33;5.47;;;0.30;99.90;;;-2.12;100.00;99416.88;10473456;28;20057;-81
2022/11/21 03:18:32;;;;;;;14.07;5.40;;;0.30;99.90;;;-2.12;100.00;99416.88;10493601;28;20072;-82
2022/11/21 03:23:35;;;;;;;15.13;5.20;;;0.30;99.90;;;-2.12;100.00;99421.25;10489992;28;20089;-82
2022/11/21 03:28:40;;;;;;;10.43;4.50;;;0.30;99.90;;;-2.09;100.00;99418.44;10522866;28;20496;-82
2022/11/21 03:33:43;;;;;;;13.50;4.63;;;0.30;99.90;;;-2.12;100.00;99416.88;10517903;28;20061;-82
2022/11/21 03:38:46;;;;;;;9.93;4.30;;;0.30;99.90;;;-2.15;100.00;99414.50;10538519;28;20060;-82
2022/11/21 03:43:49;;;;;;;11.67;4.03;;;0.30;99.90;;;-2.16;100.00;99418.00;10518394;28;20061;-82
2022/11/21 03:48:52;;;;;;;11.97;4.00;;;0.30;99.90;;;-2.24;100.00;99404.69;10510450;28;20092;-81
2022/11/21 03:53:55;;;;;;;12.97;4.63;;;0.30;99.90;;;-2.33;100.00;99407.94;10489158;28;20065;-80
2022/11/21 03:58:58;;;;;;;13.73;4.83;;;0.20;99.90;;;-2.39;100.00;99395.38;10490823;28;20053;-81
2022/11/21 04:04:01;;;;;;;11.47;4.20;;;0.10;99.90;;;-2.45;100.00;99394.84;10495381;28;20092;-80
2022/11/21 04:09:04;;;;;;;12.27;4.23;;;0.00;99.90;;;-2.50;100.00;99378.72;10477640;28;20062;-81
2022/11/21 04:14:07;;;;;;;14.90;5.63;;;0.00;99.90;;;-2.54;100.00;99366.00;10479574;28;20509;-81
2022/11/21 04:19:10;;;;;;;15.17;4.53;;;0.00;99.90;;;-2.57;100.00;99358.44;10518925;28;20063;-81
2022/11/21 04:24:13;;;;;;;15.27;5.53;;;-0.10;99.90;;;-2.60;100.00;99356.03;10477543;28;20061;-81
2022/11/21 04:29:16;;;;;;;18.67;6.07;;;-0.10;99.90;;;-2.67;100.00;99349.59;10465188;28;20502;-81
2022/11/21 04:34:19;;;;;;;15.37;5.10;;;-0.20;99.90;;;-2.70;100.00;99342.81;10516609;28;20067;-81
2022/11/21 04:39:22;;;;;;;28.27;11.87;;;-0.20;99.90;;;-2.74;100.00;99337.00;10508933;28;20567;-81
2022/11/21 04:44:25;;;;;;;29.27;14.47;;;-0.20;99.90;;;-2.75;100.00;99334.50;10469614;28;20417;-82
2022/11/21 04:49:28;;;;;;;29.63;11.70;;;-0.20;99.90;;;-2.83;100.00;99331.59;10508884;28;20057;-81
2022/11/21 04:54:31;;;;;;;29.20;11.27;;;-0.30;99.90;;;-2.93;100.00;99343.56;10478294;28;20061;-82
2022/11/21 04:59:34;;;;;;;22.77;10.40;;;-0.40;99.90;;;-3.09;100.00;99331.59;10484805;28;20057;-82
2022/11/21 05:04:37;;;;;;;24.77;10.43;;;-0.50;99.90;;;-3.17;100.00;99333.03;10499499;28;20428;-82
2022/11/21 05:09:40;;;;;;;23.47;9.40;;;-0.60;99.90;;;-3.25;100.00;99328.34;10494018;28;20057;-81
2022/11/21 05:14:43;;;;;;;23.37;9.00;;;-0.70;99.90;;;-3.32;100.00;99327.09;10493683;28;20061;-81
2022/11/21 05:19:46;;;;;;;26.07;9.33;;;-0.80;99.90;;;-3.37;100.00;99322.19;10487227;28;20064;-81
2022/11/21 05:24:49;;;;;;;47.80;16.50;;;-0.80;99.90;;;-3.37;100.00;99319.59;10444024;28;20061;-81
2022/11/21 05:29:53;;;;;;;27.17;11.40;;;-0.90;99.90;;;-3.39;100.00;99318.88;10503392;28;20049;-81
2022/11/21 05:34:57;;;;;;;54.17;14.00;;;-0.90;99.90;;;-3.37;100.00;99316.16;10502247;28;20160;-82
2022/11/21 05:39:59;;;;;;;37.00;12.70;;;-0.80;99.90;;;-3.35;100.00;99332.50;10501097;28;20053;-81
2022/11/21 05:45:03;;;;;;;39.10;12.03;;;-0.80;99.90;;;-3.30;100.00;99331.25;10474174;28;20061;-82
2022/11/21 05:50:06;;;;;;;76.03;20.17;;;-0.80;99.90;;;-3.21;100.00;99332.41;10518847;28;20067;-81
2022/11/21 05:55:09;;;;;;;52.33;11.97;;;-0.70;99.90;;;-3.07;100.00;99344.47;10483855;28;20068;-81
2022/11/21 06:00:13;;;;;;;43.03;12.13;;;-0.60;99.90;;;-2.97;100.00;99342.94;10488643;28;20123;-81
2022/11/21 06:05:16;;;;;;;52.70;11.13;;;-0.40;99.90;;;-2.85;100.00;99339.50;10426772;28;20531;-81
2022/11/21 06:10:19;;;;;;;45.17;10.33;;;-0.30;99.90;;;-2.74;100.00;99342.22;10462827;28;20061;-81
2022/11/21 06:15:22;;;;;;;34.13;10.47;;;-0.20;99.90;;;-2.70;100.00;99351.47;10485109;28;20091;-82
2022/11/21 06:20:24;;;;;;;35.30;11.73;;;-0.20;99.90;;;-2.70;100.00;99348.00;10497336;28;20476;-82
2022/11/21 06:25:27;;;;;;;33.13;10.40;;;-0.20;99.90;;;-2.67;100.00;99344.38;10515621;28;20425;-82
2022/11/21 06:30:30;;;;;;;44.13;10.70;;;-0.20;99.90;;;-2.62;100.00;99356.16;10496332;28;20071;-82
2022/11/21 06:35:37;;;;;;;38.40;10.63;;;-0.20;99.90;;;-2.57;100.00;99358.44;10466198;28;20053;-82
2022/11/21 06:40:40;;;;;;;38.70;10.70;;;-0.10;99.90;;;-2.52;100.00;99366.72;10500987;28;20251;-82
2022/11/21 06:45:43;;;;;;;46.53;10.20;;;0.00;99.90;;;-2.49;100.00;99371.75;10465574;28;20079;-81
2022/11/21 06:50:46;;;;;;;47.20;11.87;;;0.10;99.90;;;-2.48;100.00;99376.81;10516659;28;20053;-82
2022/11/21 06:55:49;;;;;;;37.00;10.73;;;0.10;99.90;;;-2.48;100.00;99389.00;10515925;28;20061;-83
2022/11/21 07:00:52;;;;;;;28.87;10.50;;;0.10;99.90;;;-2.47;100.00;99386.28;10500019;28;20184;-83
2022/11/21 07:05:59;;;;;;;44.47;10.87;;;0.10;99.90;;;-2.40;100.00;99386.69;10517020;28;20061;-82
2022/11/21 07:11:06;;;;;;;43.30;9.80;;;0.10;99.90;;;-2.35;100.00;99387.22;10476810;28;20061;-82
2022/11/21 07:16:31;;;;;;;58.40;10.87;;;0.20;99.90;;;-2.16;100.00;99389.38;10447004;28;20084;-82
2022/11/21 07:21:34;;;;;;;33.23;10.87;;;0.40;99.90;;;-2.01;100.00;99385.72;10431606;28;20144;-82
2022/11/21 07:26:37;;;;;;;35.07;7.77;;;0.50;99.90;;;-1.91;100.00;99393.72;10451696;28;20425;-82
2022/11/21 07:31:40;;;;;;;33.40;9.07;;;0.60;99.90;;;-1.85;100.00;99388.06;10493048;28;20060;-82
2022/11/21 07:36:43;;;;;;;22.50;8.23;;;0.70;99.90;;;-1.84;100.00;99384.53;10504091;28;20065;-83
2022/11/21 07:41:46;;;;;;;33.47;8.97;;;0.70;99.90;;;-1.78;100.00;99388.47;10497897;28;20065;-82
2022/11/21 07:46:54;;;;;;;30.23;11.67;;;0.70;99.90;;;-1.74;100.00;99385.53;10463436;28;20152;-82
2022/11/21 07:51:57;;;;;;;27.60;9.47;;;0.70;99.90;;;-1.62;100.00;99389.00;10430179;28;20061;-82
2022/11/21 07:57:00;;;;;;;43.40;11.10;;;0.90;99.90;;;-1.48;100.00;99394.06;10470746;28;20517;-83
2022/11/21 08:02:04;;;;;;;38.50;11.40;;;1.00;99.90;;;-1.37;100.00;99396.72;10469022;28;20127;-82
2022/11/21 08:07:09;;;;;;;33.57;10.80;;;1.10;99.90;;;-1.21;100.00;99408.63;10461932;28;20061;-82
2022/11/21 08:12:13;;;;;;;24.77;11.37;;;1.30;99.90;;;-1.07;100.00;99405.84;10469879;28;20056;-82
2022/11/21 08:17:17;;;;;;;38.87;12.63;;;1.40;99.90;;;-0.95;100.00;99397.13;10481688;28;20064;-82
2022/11/21 08:22:20;;;;;;;34.77;14.97;;;1.60;99.90;;;-0.88;100.00;99393.09;10484529;28;20053;-82
2022/11/21 08:27:23;;;;;;;29.10;11.77;;;1.70;99.90;;;-0.68;100.00;99395.97;10519301;28;20057;-82
2022/11/21 08:32:26;;;;;;;48.63;14.17;;;1.90;99.90;;;-0.43;100.00;99408.00;10520710;28;20057;-82
2022/11/21 08:37:29;;;;;;;28.53;11.87;;;2.20;99.90;;;-0.24;100.00;99415.25;10502884;28;20057;-82
2022/11/21 08:42:32;;;;;;;35.77;13.43;;;2.40;99.90;;;-0.16;100.00;99405.06;10502893;28;20064;-82
2022/11/21 08:47:35;;;;;;;35.53;15.20;;;2.50;99.90;;;-0.12;100.00;99402.09;10483548;28;20057;-83
2022/11/21 08:52:38;;;;;;;27.77;13.23;;;2.60;99.90;;;0.01;100.00;99416.81;10484916;28;20528;-83
2022/11/21 08:57:42;;;;;;;43.33;16.53;;;2.70;99.90;;;0.05;100.00;99405.16;10501892;28;20065;-82
2022/11/21 09:02:45;;;;;;;35.70;15.10;;;2.80;99.90;;;0.08;100.00;99416.19;10519711;28;20067;-82
2022/11/21 09:07:54;;;;;;;47.80;18.13;;;2.80;99.90;;;0.09;100.00;99417.84;10518285;28;20061;-82
2022/11/21 09:12:58;;;;;;;53.70;21.83;;;2.90;99.90;;;0.01;100.00;99409.78;10500885;28;20061;-82
2022/11/21 09:18:03;;;;;;;46.57;16.00;;;2.80;99.90;;;-0.05;100.00;99423.34;10519454;28;20060;-82
2022/11/21 09:23:09;;;;;;;41.90;14.80;;;2.70;99.90;;;-0.12;100.00;99415.16;10485030;28;20057;-82
2022/11/21 09:28:13;;;;;;;48.10;19.30;;;2.70;99.90;;;0.03;100.00;99417.50;10518807;28;20060;-82
2022/11/21 09:33:16;;;;;;;36.97;14.10;;;2.70;99.90;;;0.11;100.00;99423.78;10501697;28;20565;-82
2022/11/21 09:38:20;;;;;;;45.57;15.73;;;2.80;99.90;;;0.21;100.00;99427.34;10480789;28;20088;-82
2022/11/21 09:44:08;;;;;;;33.47;14.07;;;2.90;99.90;;;0.33;100.00;99430.75;10490912;28;20159;-82
2022/11/21 09:49:14;;;;;;;32.00;12.37;;;3.00;99.90;;;0.43;100.00;99436.09;10475686;28;20061;-82
2022/11/21 09:54:33;;;;;;;31.97;13.93;;;3.10;99.90;;;0.51;100.00;99426.69;10467886;28;20061;-82
2022/11/21 09:59:38;;;;;;;38.80;15.27;;;3.20;99.90;;;0.62;100.00;99419.78;10515221;28;20071;-81
2022/11/21 10:04:42;;;;;;;38.00;13.53;;;3.30;99.90;;;0.74;100.00;99422.22;10517465;28;20061;-81
2022/11/21 10:10:18;;;;;;;38.93;17.07;;;3.30;99.90;;;0.90;100.00;99413.97;10517102;28;20056;-81
2022/11/21 10:15:53;;;;;;;33.47;12.33;;;3.50;99.90;;;1.10;100.00;99395.78;10516336;28;20560;-81
2022/11/21 10:21:17;;;;;;;35.07;17.03;;;3.70;99.90;;;1.26;100.00;99388.31;10500476;28;20091;-81
2022/11/21 10:26:51;;;;;;;36.53;16.43;;;3.80;99.90;;;1.40;100.00;99384.56;10476491;28;20068;-81
2022/11/21 10:31:57;;;;;;;27.83;13.57;;;4.00;99.90;;;1.54;100.00;99378.97;10484318;28;20061;-80
2022/11/21 10:37:34;;;;;;;25.67;11.70;;;4.10;99.90;;;1.64;100.00;99363.31;10516926;28;20060;-80
2022/11/21 10:42:50;;;;;;;33.23;14.80;;;4.20;99.90;;;1.70;100.00;99368.84;10485298;28;20065;-80
2022/11/21 10:47:53;;;;;;;35.13;14.27;;;4.30;99.90;;;1.73;100.00;99354.66;10475911;28;20065;-80
2022/11/21 10:58:58;;;;;;;38.20;17.30;;;4.40;99.90;;;1.99;100.00;99345.38;10526051;28;20447;-80
2022/11/21 11:04:05;;;;;;;;;;;4.50;99.90;;;2.12;100.00;99345.94;10488583;28;20084;-81
2022/11/21 11:09:33;;;;;;;28.90;13.83;;;4.60;99.90;;;2.31;100.00;99345.16;10493799;28;20002;-80
2022/11/21 11:14:36;;;;;;;29.00;13.33;;;4.80;99.90;;;2.51;100.00;99345.16;10468403;28;20203;-79
2022/11/21 11:20:23;;;;;;;27.30;14.27;;;5.00;99.90;;;2.64;100.00;99341.31;10523949;28;20464;-80
2022/11/21 11:25:26;;;;;;;28.60;13.60;;;5.20;99.90;;;2.81;100.00;99336.31;10503612;28;20059;-80
2022/11/21 11:30:36;;;;;;;30.80;14.87;;;5.30;99.90;;;3.03;100.00;99314.22;10505575;28;20115;-80
2022/11/21 11:35:41;;;;;;;29.67;15.10;;;5.50;99.90;;;3.29;100.00;99315.25;10523454;28;20061;-80
2022/11/21 11:40:44;;;;;;;33.97;16.23;;;5.70;99.90;;;3.44;100.00;99297.22;10521726;28;20068;-80
2022/11/21 11:51:36;;;;;;;33.30;14.50;;;6.00;99.90;;;3.56;100.00;99284.75;10482898;28;20454;-80
2022/11/21 11:56:42;;;;;;;110.63;45.03;;;6.10;99.90;;;3.62;100.00;99281.53;10517752;28;20057;-80
2022/11/21 12:02:20;;;;;;;69.77;38.20;;;6.10;99.90;;;3.75;100.00;99271.50;10462928;28;20061;-80
2022/11/21 12:07:48;;;;;;;32.63;15.17;;;6.20;99.90;;;3.82;100.00;99277.81;10480595;28;20060;-80
2022/11/21 12:13:18;;;;;;;33.47;14.63;;;6.30;99.90;;;3.72;100.00;99272.63;10480378;28;20048;-80
2022/11/21 12:18:36;;;;;;;29.60;14.33;;;6.20;99.90;;;3.68;100.00;99267.81;10506529;28;20394;-79
2022/11/21 12:24:01;;;;;;;30.77;13.37;;;6.20;99.90;;;3.63;100.00;99260.38;10488741;28;20095;-80
2022/11/21 12:29:55;;;;;;;27.83;13.30;;;6.10;99.90;;;3.61;100.00;99256.25;10478798;28;20061;-80
2022/11/21 12:35:20;;;;;;;;;;;6.10;99.90;;;3.64;100.00;99259.38;10482130;28;20505;-81
2022/11/21 12:47:18;;;;;;;33.83;15.90;;;6.10;99.90;;;3.77;100.00;99224.88;10472972;28;20061;-80
2022/11/21 12:58:25;;;;;;;33.13;17.63;;;6.40;99.90;;;4.12;100.00;99223.25;10484823;28;20053;-80
2022/11/21 13:03:46;;;;;;;44.30;22.37;;;6.50;99.90;;;4.19;100.00;99224.28;10463645;28;20188;-80
2022/11/21 13:08:53;;;;;;;36.40;17.77;;;6.60;99.90;;;4.18;100.00;99222.66;10444786;28;20470;-80
2022/11/21 13:14:14;;;;;;;33.40;17.30;;;6.60;99.90;;;4.14;100.00;99232.66;10445379;28;20062;-80
2022/11/21 13:19:58;;;;;;;29.05;14.02;;;6.50;99.90;;;4.10;100.00;99230.47;10516289;28;20060;-80
2022/11/21 13:25:12;;;;;;;32.93;18.13;;;6.50;99.90;;;4.05;100.00;99233.53;10495261;28;20064;-80
2022/11/21 13:30:21;;;;;;;35.13;18.53;;;6.40;99.90;;;4.00;100.00;99230.53;10493141;28;20068;-80
2022/11/21 13:35:24;;;;;;;39.63;20.23;;;6.40;99.90;;;3.95;100.00;99233.59;10480841;28;20140;-80
2022/11/21 13:40:27;;;;;;;34.00;18.43;;;6.40;99.90;;;3.90;100.00;99237.66;10493240;28;20057;-81
2022/11/21 13:45:55;;;;;;;31.03;16.13;;;6.30;99.90;;;3.84;100.00;99231.22;10476214;28;20058;-80
2022/11/21 13:51:25;;;;;;;41.47;22.00;;;6.20;99.90;;;3.76;100.00;99229.31;10427544;28;20148;-80
2022/11/21 13:57:16;;;;;;;26.57;14.97;;;6.20;99.90;;;3.67;100.00;99227.56;10461320;28;20148;-80
2022/11/21 14:02:41;;;;;;;39.93;18.40;;;6.10;99.90;;;3.54;100.00;99231.50;10477819;28;20504;-81
2022/11/21 14:07:45;;;;;;;39.07;18.73;;;6.00;99.90;;;3.41;100.00;99244.97;10487587;28;20134;-81
2022/11/21 14:12:52;;;;;;;36.73;17.80;;;5.80;99.90;;;3.23;100.00;99232.63;10461097;28;20057;-80
2022/11/21 14:18:00;;;;;;;45.10;19.17;;;5.70;99.90;;;3.07;100.00;99232.41;10499340;28;20068;-80
2022/11/21 14:23:16;;;;;;;47.57;22.37;;;5.50;99.90;;;2.90;100.00;99238.41;10474940;28;20200;-81
2022/11/21 14:28:28;;;;;;;56.93;25.47;;;5.40;99.90;;;2.73;100.00;99242.59;10441628;28;20144;-80
2022/11/21 14:33:33;;;;;;;43.77;20.67;;;5.20;99.90;;;2.59;100.00;99248.28;10459291;28;20057;-80
2022/11/21 14:38:50;;;;;;;50.27;23.53;;;5.10;99.90;;;2.47;100.00;99250.22;10498318;28;20064;-80
2022/11/21 14:44:18;;;;;;;41.77;19.93;;;5.00;99.90;;;2.38;100.00;99256.28;10469679;28;20068;-83
2022/11/21 14:49:24;;;;;;;51.90;21.97;;;4.90;99.90;;;2.31;100.00;99252.56;10478582;28;20064;-83
2022/11/21 14:54:48;;;;;;;72.47;32.37;;;4.80;99.90;;;2.29;100.00;99255.34;10498791;28;20064;-83
2022/11/21 15:00:19;;;;;;;59.33;27.87;;;4.80;99.90;;;2.30;100.00;99251.75;10517550;28;20057;-80
2022/11/21 15:05:42;;;;;;;60.73;28.13;;;4.80;99.90;;;2.35;100.00;99256.59;10438317;28;20215;-79
2022/11/21 15:11:07;;;;;;;59.77;27.93;;;4.80;99.90;;;2.37;100.00;99259.88;10479150;28;20065;-79
2022/11/21 15:16:10;;;;;;;55.47;26.00;;;4.80;99.90;;;2.36;100.00;99269.53;10483588;28;20520;-80
2022/11/21 15:21:17;;;;;;;90.00;36.43;;;4.80;99.90;;;2.30;100.00;99266.66;10473544;28;20063;-80
2022/11/21 15:26:34;;;;;;;64.20;26.13;;;4.70;99.90;;;2.17;100.00;99279.19;10496068;28;20061;-80
2022/11/21 15:31:37;;;;;;;97.57;44.00;;;4.60;99.90;;;2.00;100.00;99288.56;10457932;28;20084;-80
2022/11/21 15:36:40;;;;;;;70.13;33.93;;;4.50;99.90;;;1.82;100.00;99286.59;10499999;28;20072;-81
2022/11/21 15:41:43;;;;;;;75.63;36.73;;;4.30;99.90;;;1.70;100.00;99290.28;10515265;28;20068;-80
2022/11/21 15:46:50;;;;;;;76.17;33.63;;;4.20;99.90;;;1.60;100.00;99302.50;10516992;28;20150;-80
2022/11/21 15:51:54;;;;;;;85.50;37.33;;;4.00;99.90;;;1.50;100.00;99304.25;10480488;28;20061;-81
2022/11/21 15:57:13;;;;;;;25.13;11.47;;;4.00;99.90;;;1.79;100.00;99299.94;10466486;28;20065;-80
2022/11/21 16:02:19;;;;;;;18.53;9.83;;;4.10;99.90;;;2.19;100.00;99301.69;10503914;28;20119;-80
2022/11/21 16:07:21;;;;;;;21.77;9.90;;;4.40;99.90;;;2.48;100.00;99293.00;10531701;28;20057;-79
2022/11/21 16:12:24;;;;;;;23.40;12.00;;;4.70;99.90;;;2.65;100.00;99263.47;10493825;28;20065;-79
2022/11/21 16:17:27;;;;;;;33.13;16.97;;;5.00;99.90;;;2.80;100.00;99259.41;10503062;28;20061;-80
2022/11/21 16:22:31;;;;;;;39.03;17.40;;;5.10;99.90;;;2.92;100.00;99260.06;10502831;28;20065;-80
2022/11/21 16:27:34;;;;;;;25.97;12.63;;;5.20;99.90;;;2.98;100.00;99264.75;10499037;28;20176;-80
2022/11/21 16:32:37;;;;;;;22.13;10.43;;;5.30;99.90;;;2.96;100.00;99266.72;10475517;28;20416;-80
2022/11/21 16:37:40;;;;;;;25.23;13.07;;;5.30;99.90;;;2.88;100.00;99261.34;10501480;28;20111;-80
2022/11/21 16:42:43;;;;;;;25.07;12.93;;;5.30;99.90;;;2.68;100.00;99268.41;10514627;28;20115;-80
2022/11/21 16:47:46;;;;;;;22.17;12.27;;;5.10;99.90;;;2.48;100.00;99269.41;10503752;28;20061;-80
2022/11/21 16:52:50;;;;;;;33.80;17.37;;;4.90;99.90;;;2.20;100.00;99279.75;10503434;28;20531;-81
2022/11/21 16:57:56;;;;;;;36.60;19.43;;;4.70;99.90;;;1.97;100.00;99278.31;10502285;28;20595;-81
2022/11/21 17:03:00;;;;;;;67.73;30.80;;;4.40;99.90;;;1.73;100.00;99287.38;10485416;28;20468;-81
2022/11/21 17:08:03;;;;;;;51.73;25.93;;;4.20;99.90;;;1.50;100.00;99299.00;10498905;28;20504;-81
2022/11/21 17:13:06;;;;;;;40.70;21.50;;;4.00;99.90;;;1.27;100.00;99301.84;10508671;28;20068;-81
2022/11/21 17:18:09;;;;;;;52.17;23.57;;;3.80;99.90;;;1.10;100.00;99299.81;10479539;28;20152;-81
2022/11/21 17:23:13;;;;;;;48.87;24.10;;;3.60;99.90;;;0.95;100.00;99298.47;10496946;28;20107;-81
2022/11/21 17:28:15;;;;;;;58.00;26.90;;;3.50;99.90;;;0.80;100.00;99296.19;10496778;28;20146;-82
2022/11/21 17:33:20;;;;;;;52.37;23.63;;;3.30;99.90;;;0.65;100.00;99315.75;10478599;28;20060;-80
2022/11/21 17:38:23;;;;;;;35.00;15.73;;;3.20;99.90;;;0.49;100.00;99310.97;10451782;28;20200;-81
2022/11/21 17:43:26;;;;;;;32.47;16.07;;;3.00;99.90;;;0.34;100.00;99320.03;10482915;28;20148;-82
2022/11/21 17:48:33;;;;;;;53.50;21.30;;;2.90;99.90;;;0.18;100.00;99325.69;10498418;28;20061;-82
2022/11/21 17:53:40;;;;;;;70.80;30.50;;;2.70;99.90;;;0.08;100.00;99330.00;10470436;28;20057;-83
2022/11/21 17:58:44;;;;;;;60.23;29.73;;;2.60;99.90;;;-0.02;100.00;99323.81;10480997;28;20563;-83
2022/11/21 18:04:01;;;;;;;96.63;43.60;;;2.50;99.90;;;0.02;100.00;99321.81;10493063;28;20424;-82
2022/11/21 18:09:10;;;;;;;67.97;31.70;;;2.50;99.90;;;0.02;100.00;99311.38;10471622;28;20469;-82
2022/11/21 18:14:13;;;;;;;80.80;35.50;;;2.50;99.90;;;0.05;100.00;99308.50;10489177;28;20160;-82
2022/11/21 18:19:16;;;;;;;37.47;18.47;;;2.50;99.90;;;0.08;100.00;99308.25;10456165;28;20072;-82
2022/11/21 18:24:19;;;;;;;78.13;37.67;;;2.50;99.90;;;0.14;100.00;99299.94;10500943;28;20437;-82
2022/11/21 18:29:23;;;;;;;67.67;28.80;;;2.60;99.90;;;0.22;100.00;99295.72;10447892;28;20053;-82
2022/11/21 18:34:41;;;;;;;79.10;29.10;;;2.60;99.90;;;0.21;100.00;99308.94;10486332;28;20057;-82
2022/11/21 18:39:45;;;;;;;56.60;22.67;;;2.70;99.90;;;0.15;100.00;99297.19;10468276;28;20119;-80
2022/11/21 18:44:48;;;;;;;70.83;27.50;;;2.60;99.90;;;0.08;100.00;99292.59;10466242;28;20192;-83
2022/11/21 18:49:50;;;;;;;63.43;26.97;;;2.60;99.90;;;-0.01;100.00;99289.75;10498526;28;20061;-80
2022/11/21 18:54:53;;;;;;;66.53;28.27;;;2.50;99.90;;;-0.11;100.00;99288.84;10481758;28;20083;-82
2022/11/21 18:59:56;;;;;;;59.90;25.47;;;2.40;99.90;;;-0.20;100.00;99300.00;10477087;28;20570;-80
2022/11/21 19:04:59;;;;;;;53.83;24.90;;;2.30;99.90;;;-0.34;100.00;99301.09;10495670;28;20143;-80
2022/11/21 19:10:04;;;;;;;59.80;26.13;;;2.20;99.90;;;-0.54;100.00;99299.19;10498877;28;20064;-82
2022/11/21 19:15:26;;;;;;;49.30;21.10;;;2.10;99.90;;;-0.65;100.00;99301.84;10490587;28;20606;-82
2022/11/21 19:20:32;;;;;;;45.87;20.83;;;1.90;99.90;;;-0.76;100.00;99307.03;10501950;28;20502;-80
2022/11/21 19:25:35;;;;;;;56.77;24.90;;;1.80;99.90;;;-0.83;100.00;99315.34;10494944;28;20055;-81
2022/11/21 19:30:39;;;;;;;49.57;23.63;;;1.70;99.90;;;-0.88;100.00;99317.47;10495344;28;20065;-80
2022/11/21 19:35:43;;;;;;;55.50;24.60;;;1.70;99.90;;;-0.94;100.00;99322.31;10491186;28;20064;-82
2022/11/21 19:46:07;;;;;;;54.93;23.80;;;1.60;99.90;;;-1.08;100.00;99325.94;10472689;28;20061;-83
2022/11/21 19:51:10;;;;;;;64.83;27.37;;;1.50;99.90;;;-1.13;100.00;99328.09;10481134;28;20060;-82
2022/11/21 19:56:22;;;;;;;87.13;32.27;;;1.50;99.90;;;-1.16;100.00;99334.34;10477553;28;20060;-82
2022/11/21 20:01:31;;;;;;;156.77;46.60;;;1.40;99.90;;;-1.23;100.00;99338.38;10486433;28;20068;-81
2022/11/21 20:06:37;;;;;;;165.57;52.50;;;1.40;99.90;;;-1.28;100.00;99330.06;10474416;28;20067;-83
2022/11/21 20:11:44;;;;;;;166.83;42.90;;;1.30;99.90;;;-1.32;100.00;99331.22;10490571;28;20068;-81
2022/11/21 20:16:47;;;;;;;143.17;38.20;;;1.30;99.90;;;-1.36;100.00;99346.25;10511014;28;20057;-82
2022/11/21 20:21:51;;;;;;;79.77;29.07;;;1.30;99.90;;;-1.37;100.00;99342.00;10522257;28;20064;-81
2022/11/21 20:26:54;;;;;;;51.03;19.83;;;1.30;99.90;;;-1.30;100.00;99331.13;10456133;28;20509;-82
2022/11/21 20:31:58;;;;;;;58.80;26.20;;;1.30;99.90;;;-1.17;100.00;99337.06;10496251;28;20064;-83
2022/11/21 20:37:02;;;;;;;68.10;32.70;;;1.40;99.90;;;-0.99;100.00;99334.88;10498406;28;20092;-83
2022/11/21 20:42:05;;;;;;;78.37;28.90;;;1.60;99.90;;;-0.82;100.00;99327.44;10498809;28;20057;-83
2022/11/21 20:47:09;;;;;;;67.80;26.10;;;1.70;99.90;;;-0.64;100.00;99319.16;10515832;28;20456;-83
2022/11/21 20:52:11;;;;;;;68.17;23.37;;;1.90;99.90;;;-0.50;100.00;99318.91;10498270;28;20069;-83
2022/11/21 20:57:34;;;;;;;82.40;25.33;;;2.00;99.90;;;-0.36;100.00;99312.59;10475798;28;20147;-83
2022/11/21 21:02:37;;;;;;;86.30;26.73;;;2.10;99.90;;;-0.29;100.00;99304.19;10492051;28;20052;-83
2022/11/21 21:07:43;;;;;;;79.30;23.03;;;2.20;99.90;;;-0.23;100.00;99291.59;10514068;28;20417;-83
2022/11/21 21:12:46;;;;;;;66.17;20.77;;;2.30;99.90;;;-0.13;100.00;99301.16;10503333;28;20088;-83
2022/11/21 21:17:50;;;;;;;56.47;19.00;;;2.40;99.90;;;0.01;100.00;99296.66;10481158;28;20057;-83
2022/11/21 21:22:54;;;;;;;84.90;21.17;;;2.50;99.90;;;0.09;100.00;99287.22;10516008;28;20053;-84
2022/11/21 21:27:57;;;;;;;76.67;17.90;;;2.60;99.90;;;0.19;100.00;99288.16;10473897;28;20062;-84
2022/11/21 21:33:00;;;;;;;60.83;18.47;;;2.60;99.90;;;0.29;100.00;99287.41;10478634;28;20069;-84